TimeEST,TemperatureF,Dew PointF,Humidity,Sea Level PressureIn,VisibilityMPH,Wind Direction,Wind SpeedMPH,Gust SpeedMPH,PrecipitationIn,Events,Conditions,WindDirDegrees,DateUTC
12:53 AM,41.0,28.9,62,30.45,10.0,South,3.5,-,N/A,,Overcast,180,2013-01-28 05:53:00
1:53 AM,41.0,28.9,62,30.43,10.0,SE,3.5,-,N/A,,Overcast,130,2013-01-28 06:53:00
2:53 AM,39.9,28.9,65,30.44,10.0,Calm,Calm,-,N/A,,Overcast,0,2013-01-28 07:53:00
3:53 AM,39.9,28.0,63,30.43,10.0,Calm,Calm,-,N/A,,Overcast,0,2013-01-28 08:53:00
4:53 AM,39.9,28.9,65,30.41,10.0,SSE,6.9,-,N/A,,Overcast,160,2013-01-28 09:53:00
5:01 AM,39.2,28.4,65,30.40,10.0,SSE,4.6,-,N/A,,Overcast,150,2013-01-28 10:01:00
5:34 AM,39.2,28.4,65,30.42,10.0,Calm,Calm,-,N/A,,Overcast,0,2013-01-28 10:34:00
5:51 AM,39.2,28.4,65,30.41,10.0,SSW,5.8,-,N/A,,Overcast,200,2013-01-28 10:51:00
5:53 AM,39.9,28.9,65,30.42,10.0,SSW,5.8,-,N/A,,Overcast,210,2013-01-28 10:53:00
6:53 AM,39.9,30.0,68,30.42,10.0,SSW,3.5,-,N/A,,Overcast,200,2013-01-28 11:53:00
7:53 AM,39.9,30.0,68,30.43,10.0,South,5.8,-,N/A,,Overcast,180,2013-01-28 12:53:00
8:53 AM,41.0,30.9,67,30.42,10.0,SE,3.5,-,N/A,,Overcast,130,2013-01-28 13:53:00
9:53 AM,42.1,30.9,65,30.43,10.0,Calm,Calm,-,N/A,,Overcast,0,2013-01-28 14:53:00
10:53 AM,43.0,30.9,62,30.43,10.0,South,3.5,-,N/A,,Overcast,170,2013-01-28 15:53:00
11:53 AM,46.0,32.0,58,30.41,10.0,SSW,5.8,-,N/A,,Overcast,200,2013-01-28 16:53:00
12:53 PM,48.0,37.9,68,30.37,10.0,West,6.9,-,N/A,,Overcast,260,2013-01-28 17:53:00
1:53 PM,48.9,41.0,74,30.33,10.0,WSW,4.6,-,N/A,,Overcast,240,2013-01-28 18:53:00
2:53 PM,50.0,41.0,71,30.29,10.0,South,6.9,-,N/A,,Overcast,190,2013-01-28 19:53:00
3:53 PM,52.0,43.0,71,30.28,10.0,SSW,10.4,-,N/A,,Overcast,210,2013-01-28 20:53:00
4:53 PM,52.0,44.1,74,30.27,10.0,SW,9.2,-,N/A,,Overcast,220,2013-01-28 21:53:00
5:53 PM,51.1,44.1,77,30.27,10.0,SSW,11.5,-,N/A,,Overcast,210,2013-01-28 22:53:00
6:53 PM,50.0,45.0,83,30.27,10.0,SSW,15.0,-,N/A,,Overcast,210,2013-01-28 23:53:00
7:53 PM,50.0,44.1,80,30.27,10.0,SW,8.1,-,N/A,,Overcast,220,2013-01-29 00:53:00
8:53 PM,48.0,44.1,86,30.27,8.0,SW,9.2,-,N/A,,Mostly Cloudy,230,2013-01-29 01:53:00
9:53 PM,46.0,43.0,89,30.27,6.0,SW,10.4,-,N/A,,Mostly Cloudy,230,2013-01-29 02:53:00
10:05 PM,46.4,42.8,87,30.27,5.0,SW,11.5,-,N/A,,Partly Cloudy,230,2013-01-29 03:05:00
10:53 PM,45.0,44.1,97,30.26,4.0,SW,6.9,-,N/A,,Mostly Cloudy,230,2013-01-29 03:53:00
11:53 PM,44.1,42.1,93,30.26,3.0,WSW,6.9,-,N/A,,Mostly Cloudy,250,2013-01-29 04:53:00